Historique des mesures à Cassis (13260), France
Quotidien Résumé Janvier 31, 2017 Unités:  US    Métrique   Métrique/US
« Précédent (Jour)
Suivant (Jour) »
Quotidien Hebdomadaire Mensuel Annuel Période au choix
  Maximum: Minimum: Moyenne:
Température: 32 °F 54.5 °F 55.6 °F
Point de rosée: 32 °F 48.2 °F 49.6 °F
Humidité: Humidity % 78 % 77 %
Vitesse du vent: WindSpeedKMH mph 0.0 mph 0.3 mph
Rafales: WindSpeedGustKMH mph - -
Vent:- - ESE
Pression: 0 in 30 in -
Précipitations: 0 in    
Historical Graphs
 
 
Mesures pour : Janvier 31, 2017
Heure Temperature Point de rosée Pression Vent Vitesse du vent Rafales Humidité Pluie (par heure) Conditions
32 °F 32 °F 0 in Calm     Humidity % 0 in SoftwareType W/m2
00:10 55 °F 48.2 °F 30 in Calm     78 % 0 in open2300-1.11 W/m2
01:11 54.7 °F 48.4 °F 30 in Calm     79 % 0 in open2300-1.11 W/m2
02:10 54.7 °F 48.4 °F 30 in Calm     79 % 0 in open2300-1.11 W/m2
03:11 54.5 °F 48.6 °F 30 in NE 2.6 mph 2.6 mph 80 % 0 in open2300-1.11 W/m2
04:10 54.5 °F 48.6 °F 30 in Calm     80 % 0 in open2300-1.11 W/m2
05:11 54.5 °F 48.7 °F 30 in Calm     81 % 0 in open2300-1.11 W/m2
06:10 54.9 °F 49.1 °F 30 in Calm     81 % 0 in open2300-1.11 W/m2
07:11 54.7 °F 48.6 °F 30 in Calm   3.5 mph 80 % 0 in open2300-1.11 W/m2
08:10 55.2 °F 48.7 °F 30 in SE 1.4 mph 2.1 mph 79 % 0 in open2300-1.11 W/m2
09:11 55.8 °F 49.3 °F 30 in Calm     79 % 0 in open2300-1.11 W/m2
10:10 56.7 °F 50.2 °F 30 in Calm   2.1 mph 79 % 0 in open2300-1.11 W/m2
11:11 57.9 °F 51.1 °F 30 in Calm   2.1 mph 78 % 0 in open2300-1.11 W/m2
12:10 58.1 °F 51.6 °F 30 in Calm   3.5 mph 79 % 0 in open2300-1.11 W/m2
13:11 58.6 °F 52.2 °F 30 in Calm   1.4 mph 79 % 0 in open2300-1.11 W/m2
14:10 58.8 °F 52 °F 30 in SE 2.1 mph 2.1 mph 78 % 0 in open2300-1.11 W/m2
15:11 58.6 °F 52.2 °F 30 in Calm     79 % 0 in open2300-1.11 W/m2
16:10 58.3 °F 52.2 °F 30 in Calm     80 % 0 in open2300-1.11 W/m2
17:11 57.9 °F 52.2 °F 30 in Calm   1.4 mph 81 % 0 in open2300-1.11 W/m2
18:10 57.6 °F 52.2 °F 30 in Calm     82 % 0 in open2300-1.11 W/m2
19:11 57.4 °F 52 °F 30 in Calm     82 % 0 in open2300-1.11 W/m2
21:11 57.4 °F 51.6 °F 30 in Calm     81 % 0 in open2300-1.11 W/m2
22:10 57.6 °F 51.8 °F 30 in Calm     81 % 0 in open2300-1.11 W/m2
23:11 57.6 °F 52.2 °F 30 in Calm     82 % 0 in open2300-1.11 W/m2
Observations météo à CASSIS
WU-History script by Weather Underground - 1 mb